createdAt,value
2023-05-11T00:02:19.397Z,10.95
2023-05-11T00:05:22.917Z,11.03
2023-05-11T00:08:26.102Z,11.03
2023-05-11T00:11:29.073Z,11.04
2023-05-11T00:14:35.116Z,10.92
2023-05-11T00:17:38.050Z,10.82
2023-05-11T00:20:40.752Z,10.75
2023-05-11T00:23:43.629Z,10.63
2023-05-11T00:26:46.498Z,10.50
2023-05-11T00:29:49.470Z,10.38
2023-05-11T00:32:52.686Z,10.10
2023-05-11T00:35:55.814Z,9.81
2023-05-11T00:38:58.786Z,9.73
2023-05-11T00:42:02.952Z,9.60
2023-05-11T00:45:06.786Z,9.36
2023-05-11T00:48:09.755Z,9.12
2023-05-11T00:51:13.800Z,8.87
2023-05-11T00:54:18.463Z,8.67
2023-05-11T00:57:21.794Z,8.40
2023-05-11T01:00:24.766Z,8.20
2023-05-11T01:03:27.786Z,8.12
2023-05-11T01:06:44.722Z,8.05
2023-05-11T01:10:02.392Z,7.89
2023-05-11T01:13:12.322Z,7.81
2023-05-11T01:16:20.659Z,7.83
2023-05-11T01:19:43.584Z,7.80
2023-05-11T01:22:57.078Z,7.71
2023-05-11T01:26:31.799Z,7.79
2023-05-11T01:29:52.954Z,7.99
2023-05-11T01:33:00.063Z,8.17
2023-05-11T01:36:10.254Z,8.39
2023-05-11T01:39:15.238Z,8.38
2023-05-11T01:42:28.877Z,8.36
2023-05-11T01:45:36.244Z,8.47
2023-05-11T01:48:42.512Z,8.45
2023-05-11T01:51:49.856Z,8.51
2023-05-11T01:54:56.266Z,8.44
2023-05-11T01:58:00.226Z,8.40
2023-05-11T02:01:04.342Z,8.34
2023-05-11T02:04:09.938Z,8.31
2023-05-11T02:07:15.111Z,8.28
2023-05-11T02:10:19.892Z,8.22
2023-05-11T02:13:24.495Z,8.22
2023-05-11T02:16:33.402Z,8.21
2023-05-11T02:19:38.733Z,8.23
2023-05-11T02:22:43.535Z,8.29
2023-05-11T02:25:48.611Z,8.43
2023-05-11T02:28:51.620Z,8.58
2023-05-11T02:32:08.468Z,8.72
2023-05-11T02:35:17.135Z,8.77
2023-05-11T02:38:21.786Z,8.88
2023-05-11T02:41:29.432Z,8.91
2023-05-11T02:44:37.658Z,8.97
2023-05-11T02:47:48.729Z,8.99
2023-05-11T02:51:01.693Z,8.95
2023-05-11T02:54:13.323Z,8.93
2023-05-11T02:57:23.761Z,8.86
2023-05-11T03:00:26.958Z,8.79
2023-05-11T03:03:30.331Z,8.73
2023-05-11T03:06:34.014Z,8.77
2023-05-11T03:09:39.454Z,8.78
2023-05-11T03:12:44.292Z,8.72
2023-05-11T03:15:47.960Z,8.69
2023-05-11T03:18:51.390Z,8.68
2023-05-11T03:22:05.269Z,8.73
2023-05-11T03:25:10.140Z,8.71
2023-05-11T03:28:15.398Z,8.71
2023-05-11T03:31:27.856Z,8.59
2023-05-11T03:34:33.137Z,8.49
2023-05-11T03:37:38.851Z,8.45
2023-05-11T03:40:46.127Z,8.43
2023-05-11T03:43:54.837Z,8.37
2023-05-11T03:47:01.899Z,8.33
2023-05-11T03:50:08.471Z,8.15
2023-05-11T03:53:14.812Z,8.34
2023-05-11T03:56:21.777Z,8.48
2023-05-11T03:59:28.911Z,8.59
2023-05-11T04:02:36.374Z,8.72
2023-05-11T04:05:44.891Z,8.82
2023-05-11T04:08:49.912Z,9.08
2023-05-11T04:11:57.285Z,9.20
2023-05-11T04:15:01.918Z,9.23
2023-05-11T04:18:12.450Z,9.34
2023-05-11T04:21:17.708Z,9.35
2023-05-11T04:24:20.636Z,9.42
2023-05-11T04:27:23.918Z,9.44
2023-05-11T04:30:27.096Z,9.41
2023-05-11T04:33:32.217Z,9.49
2023-05-11T04:36:47.111Z,9.70
2023-05-11T04:39:50.796Z,9.76
2023-05-11T04:42:54.029Z,9.97
2023-05-11T04:45:57.303Z,10.14
2023-05-11T04:49:03.247Z,10.26
2023-05-11T04:52:06.931Z,10.43
2023-05-11T04:55:11.957Z,10.50
2023-05-11T04:58:16.471Z,10.58
2023-05-11T05:01:19.486Z,10.74
2023-05-11T05:04:22.962Z,10.84
2023-05-11T05:07:26.512Z,10.88
2023-05-11T05:10:29.625Z,11.11
2023-05-11T05:13:38.239Z,11.19
2023-05-11T05:16:43.174Z,11.43
2023-05-11T05:19:49.808Z,11.41
2023-05-11T05:22:59.893Z,11.42
2023-05-11T05:26:07.611Z,11.46
2023-05-11T05:29:13.761Z,11.64
2023-05-11T05:32:17.768Z,11.67
2023-05-11T05:35:26.310Z,11.64
2023-05-11T05:38:33.875Z,11.86
2023-05-11T05:41:39.116Z,11.75
2023-05-11T05:45:08.390Z,11.99
2023-05-11T05:48:22.053Z,12.17
2023-05-11T05:55:33.705Z,12.04
2023-05-11T05:58:43.685Z,12.33
2023-05-11T06:01:49.716Z,12.56
2023-05-11T06:08:20.536Z,12.78
2023-05-11T06:11:24.211Z,12.85
2023-05-11T06:14:29.126Z,12.78
2023-05-11T06:17:44.864Z,12.74
2023-05-11T06:21:09.778Z,12.84
2023-05-11T06:24:19.723Z,13.17
2023-05-11T06:27:38.141Z,13.57
2023-05-11T06:30:58.708Z,13.80
2023-05-11T06:34:15.381Z,13.61
2023-05-11T06:37:32.204Z,13.45
2023-05-11T06:40:37.676Z,13.40
2023-05-11T06:43:41.411Z,13.33
2023-05-11T06:47:01.722Z,13.71
2023-05-11T06:50:21.108Z,13.94
2023-05-11T06:57:05.124Z,14.34
2023-05-11T07:00:19.444Z,14.31
2023-05-11T07:12:14.379Z,14.81
2023-05-11T07:16:11.057Z,15.07
2023-05-11T07:19:39.627Z,15.01
2023-05-11T07:31:39.268Z,15.40
2023-05-11T07:39:15.602Z,15.67
2023-05-11T07:43:10.563Z,15.70
2023-05-11T08:13:54.647Z,16.49
2023-05-11T08:34:55.969Z,16.63
2023-05-11T08:38:39.085Z,16.84
2023-05-11T08:43:19.472Z,16.87
2023-05-11T09:08:51.162Z,17.57
2023-05-11T09:17:29.497Z,18.27
2023-05-11T09:20:37.264Z,18.16
2023-05-11T09:23:56.477Z,18.02
2023-05-11T09:27:23.091Z,18.83
2023-05-11T09:30:34.576Z,18.70
2023-05-11T09:33:45.549Z,18.87
2023-05-11T09:36:59.974Z,18.77
2023-05-11T09:40:26.310Z,18.74
2023-05-11T09:43:47.765Z,18.76
2023-05-11T09:47:28.111Z,18.53
2023-05-11T09:50:41.794Z,19.40
2023-05-11T09:54:19.401Z,19.65
2023-05-11T09:57:32.995Z,19.45
2023-05-11T10:00:56.309Z,19.56
2023-05-11T10:04:17.665Z,19.34
2023-05-11T10:07:35.403Z,19.19
2023-05-11T10:10:45.662Z,19.29
2023-05-11T10:13:54.228Z,20.30
2023-05-11T10:17:04.995Z,20.55
2023-05-11T10:20:19.486Z,20.16
2023-05-11T10:23:36.849Z,20.04
2023-05-11T10:26:44.140Z,20.29
2023-05-11T10:34:43.442Z,20.29
2023-05-11T10:35:48.233Z,20.88
2023-05-11T10:38:35.020Z,21.34
2023-05-11T10:42:48.308Z,22.38
2023-05-11T10:46:32.529Z,23.83
2023-05-11T10:51:03.180Z,21.25
2023-05-11T10:55:27.937Z,23.07
2023-05-11T11:03:52.250Z,20.88
2023-05-11T11:11:45.832Z,24.47
2023-05-11T11:15:35.335Z,25.52
2023-05-11T11:19:58.639Z,26.14
2023-05-11T11:23:57.918Z,27.00
2023-05-11T11:27:20.640Z,27.70
2023-05-11T11:30:38.856Z,26.29
2023-05-11T11:34:09.460Z,26.77
2023-05-11T11:37:38.360Z,26.31
2023-05-11T11:40:51.386Z,22.93
2023-05-11T11:44:11.808Z,23.53
2023-05-11T11:48:14.952Z,23.32
2023-05-11T11:51:38.490Z,22.94
2023-05-11T11:54:46.043Z,23.59
2023-05-11T11:58:05.042Z,23.10
2023-05-11T12:01:41.203Z,22.43
2023-05-11T12:05:02.123Z,22.75
2023-05-11T12:08:14.164Z,24.27
2023-05-11T12:11:24.264Z,24.17
2023-05-11T12:14:35.005Z,23.82
2023-05-11T12:17:49.871Z,25.94
2023-05-11T12:20:54.616Z,25.87
2023-05-11T12:24:43.223Z,25.71
2023-05-11T12:28:13.101Z,24.39
2023-05-11T12:31:49.478Z,23.67
2023-05-11T12:35:06.234Z,25.07
2023-05-11T12:38:29.672Z,24.06
2023-05-11T12:42:20.127Z,23.05
2023-05-11T12:45:36.824Z,24.99
2023-05-11T12:48:43.057Z,26.72
2023-05-11T12:52:02.796Z,27.17
2023-05-11T12:55:10.281Z,28.37
2023-05-11T12:58:27.582Z,25.89
2023-05-11T13:01:50.438Z,23.34
2023-05-11T13:05:13.801Z,23.04
2023-05-11T13:08:29.836Z,22.38
2023-05-11T13:11:49.290Z,22.92
2023-05-11T13:19:22.454Z,25.18
2023-05-11T13:22:35.404Z,26.48
2023-05-11T13:25:51.474Z,26.01
2023-05-11T13:29:09.370Z,27.41
2023-05-11T13:32:15.245Z,25.75
2023-05-11T13:35:26.434Z,23.34
2023-05-11T13:38:37.842Z,23.68
2023-05-11T13:41:52.714Z,23.28
2023-05-11T13:56:22.379Z,27.24
2023-05-11T13:59:35.940Z,27.84
2023-05-11T14:02:54.892Z,27.56
2023-05-11T14:06:07.374Z,25.29
2023-05-11T14:09:11.470Z,25.87
2023-05-11T14:12:27.654Z,27.26
2023-05-11T14:15:31.812Z,27.88
2023-05-11T14:18:35.740Z,27.87
2023-05-11T14:21:41.472Z,25.44
2023-05-11T14:24:45.897Z,22.95
2023-05-11T14:27:49.726Z,22.43
2023-05-11T14:30:53.753Z,22.34
2023-05-11T14:33:56.793Z,22.58
2023-05-11T14:37:01.512Z,23.78
2023-05-11T14:40:05.629Z,24.45
2023-05-11T14:43:08.911Z,25.31
2023-05-11T14:46:12.039Z,24.44
2023-05-11T14:49:17.395Z,24.93
2023-05-11T14:52:23.482Z,24.16
2023-05-11T14:55:29.625Z,23.61
2023-05-11T14:58:32.887Z,23.76
2023-05-11T15:01:35.928Z,23.05
2023-05-11T15:04:39.057Z,22.65
2023-05-11T15:07:44.749Z,22.53
2023-05-11T15:10:48.604Z,22.08
2023-05-11T15:13:51.969Z,21.99
2023-05-11T15:16:59.090Z,21.83
2023-05-11T15:20:02.823Z,21.46
2023-05-11T15:23:06.628Z,21.41
2023-05-11T15:26:10.325Z,21.40
2023-05-11T15:29:13.539Z,21.51
2023-05-11T15:32:17.835Z,21.10
2023-05-11T15:35:22.252Z,21.01
2023-05-11T15:38:25.219Z,21.11
2023-05-11T15:41:31.260Z,20.68
2023-05-11T15:44:38.122Z,20.64
2023-05-11T15:47:41.428Z,20.57
2023-05-11T15:50:46.021Z,20.24
2023-05-11T15:53:51.326Z,20.14
2023-05-11T15:56:54.715Z,19.95
2023-05-11T16:00:00.591Z,19.93
2023-05-11T16:03:03.951Z,19.73
2023-05-11T16:06:07.521Z,19.80
2023-05-11T16:09:10.801Z,19.82
2023-05-11T16:12:17.143Z,19.94
2023-05-11T16:15:20.540Z,20.10
2023-05-11T16:18:26.804Z,20.22
2023-05-11T16:21:30.865Z,20.20
2023-05-11T16:24:34.585Z,20.09
2023-05-11T16:27:38.001Z,20.01
2023-05-11T16:30:41.334Z,19.82
2023-05-11T16:33:44.814Z,19.67
2023-05-11T16:36:48.403Z,19.62
2023-05-11T16:39:52.444Z,19.54
2023-05-11T16:42:55.775Z,19.45
2023-05-11T16:45:59.990Z,19.39
2023-05-11T16:49:03.268Z,19.27
2023-05-11T16:52:06.854Z,19.16
2023-05-11T16:55:10.740Z,19.10
2023-05-11T16:58:14.635Z,19.03
2023-05-11T17:01:18.336Z,18.98
2023-05-11T17:04:21.829Z,18.86
2023-05-11T17:07:26.717Z,18.76
2023-05-11T17:10:36.037Z,18.64
2023-05-11T17:13:39.418Z,18.53
2023-05-11T17:16:42.611Z,18.36
2023-05-11T17:19:46.178Z,18.28
2023-05-11T17:22:49.568Z,18.30
2023-05-11T17:25:53.264Z,18.28
2023-05-11T17:28:56.748Z,18.23
2023-05-11T17:32:00.677Z,18.10
2023-05-11T17:35:08.013Z,17.87
2023-05-11T17:38:13.125Z,17.74
2023-05-11T17:41:16.519Z,17.56
2023-05-11T17:44:19.794Z,17.44
2023-05-11T17:47:23.001Z,17.24
2023-05-11T17:50:26.259Z,17.08
2023-05-11T17:53:29.238Z,16.93
2023-05-11T17:56:33.624Z,16.79
2023-05-11T17:59:36.621Z,16.63
2023-05-11T18:02:41.386Z,16.48
2023-05-11T18:05:48.446Z,16.38
2023-05-11T18:08:53.001Z,16.16
2023-05-11T18:11:59.365Z,16.01
2023-05-11T18:15:02.724Z,15.89
2023-05-11T18:18:06.633Z,15.77
2023-05-11T18:21:12.951Z,15.67
2023-05-11T18:24:17.103Z,15.59
2023-05-11T18:27:22.620Z,15.47
2023-05-11T18:30:26.488Z,15.40
2023-05-11T18:33:29.244Z,15.29
2023-05-11T18:36:32.019Z,15.18
2023-05-11T18:39:34.676Z,15.10
2023-05-11T18:42:37.709Z,15.04
2023-05-11T18:45:41.358Z,15.00
2023-05-11T18:48:44.662Z,15.00
2023-05-11T18:51:48.212Z,14.94
2023-05-11T18:54:51.383Z,14.91
2023-05-11T18:57:58.131Z,14.84
2023-05-11T19:01:01.274Z,14.84
2023-05-11T19:04:04.804Z,14.84
2023-05-11T19:07:08.117Z,14.80
2023-05-11T19:10:11.051Z,14.80
2023-05-11T19:13:16.916Z,14.76
2023-05-11T19:16:20.845Z,14.73
2023-05-11T19:19:24.371Z,14.67
2023-05-11T19:22:27.583Z,14.61
2023-05-11T19:25:33.589Z,14.54
2023-05-11T19:28:36.463Z,14.54
2023-05-11T19:31:39.723Z,14.42
2023-05-11T19:34:42.768Z,14.36
2023-05-11T19:37:48.270Z,14.32
2023-05-11T19:40:52.553Z,14.23
2023-05-11T19:44:00.326Z,14.16
2023-05-11T19:47:04.052Z,14.13
2023-05-11T19:50:09.388Z,14.13
2023-05-11T19:53:12.561Z,14.04
2023-05-11T19:56:16.846Z,13.96
2023-05-11T19:59:23.302Z,13.93
2023-05-11T20:02:28.057Z,13.86
2023-05-11T20:05:31.503Z,13.78
2023-05-11T20:08:34.881Z,13.78
2023-05-11T20:11:38.435Z,13.77
2023-05-11T20:14:45.737Z,13.74
2023-05-11T20:17:52.251Z,13.67
2023-05-11T20:20:56.488Z,13.64
2023-05-11T20:24:03.780Z,13.53
2023-05-11T20:27:09.805Z,13.50
2023-05-11T20:30:15.542Z,13.50
2023-05-11T20:36:24.860Z,13.61
2023-05-11T20:39:31.394Z,13.64
2023-05-11T20:42:34.969Z,13.55
2023-05-11T20:45:37.991Z,13.49
2023-05-11T20:48:41.824Z,13.38
2023-05-11T20:51:46.763Z,13.34
2023-05-11T20:54:50.072Z,13.35
2023-05-11T20:57:53.306Z,13.35
2023-05-11T21:00:59.367Z,13.46
2023-05-11T21:04:02.418Z,13.49
2023-05-11T21:07:06.664Z,13.47
2023-05-11T21:10:13.070Z,13.51
2023-05-11T21:13:19.568Z,13.57
2023-05-11T21:16:23.099Z,13.60
2023-05-11T21:19:27.002Z,13.55
2023-05-11T21:22:33.706Z,13.57
2023-05-11T21:25:37.186Z,13.55
2023-05-11T21:28:40.999Z,13.59
2023-05-11T21:31:44.940Z,13.60
2023-05-11T21:34:51.526Z,13.54
2023-05-11T21:37:57.881Z,13.48
2023-05-11T21:41:02.489Z,13.44
2023-05-11T21:44:26.879Z,13.43
2023-05-11T21:47:33.275Z,13.46
2023-05-11T21:50:36.987Z,13.45
2023-05-11T21:53:40.781Z,13.42
2023-05-11T21:56:44.290Z,13.40
2023-05-11T21:59:49.502Z,13.41
2023-05-11T22:02:56.934Z,13.39
2023-05-11T22:06:00.653Z,13.30
2023-05-11T22:09:07.028Z,13.30
2023-05-11T22:12:10.700Z,13.23
2023-05-11T22:15:15.096Z,13.18
2023-05-11T22:18:26.808Z,13.13
2023-05-11T22:21:33.224Z,12.98
2023-05-11T22:24:41.928Z,13.00
2023-05-11T22:27:46.030Z,12.98
2023-05-11T22:30:49.528Z,12.99
2023-05-11T22:33:53.216Z,13.04
2023-05-11T22:37:00.389Z,13.00
2023-05-11T22:40:05.818Z,12.99
2023-05-11T22:43:09.159Z,12.99
2023-05-11T22:46:18.423Z,12.93
2023-05-11T22:49:22.065Z,12.93
2023-05-11T22:52:37.121Z,12.89
2023-05-11T22:56:00.378Z,12.82
2023-05-11T22:59:09.816Z,12.75
2023-05-11T23:02:17.389Z,12.68
2023-05-11T23:05:41.024Z,12.62
2023-05-11T23:09:27.016Z,12.58
2023-05-11T23:18:44.045Z,12.67
2023-05-11T23:33:28.349Z,12.53
2023-05-11T23:50:21.232Z,12.38
2023-05-11T23:54:04.729Z,12.47
2023-05-11T23:57:51.094Z,12.24
